createdAt,value
2016-10-31T00:00:31.944Z,1024.51
2016-10-31T00:01:31.931Z,1024.51
2016-10-31T00:02:31.909Z,1024.5
2016-10-31T00:03:31.892Z,1024.53
2016-10-31T00:04:31.875Z,1024.46
2016-10-31T00:05:31.858Z,1024.46
2016-10-31T00:06:31.845Z,1024.44
2016-10-31T00:07:31.824Z,1024.46
2016-10-31T00:08:31.807Z,1024.47
2016-10-31T00:09:31.791Z,1024.44
2016-10-31T00:10:31.772Z,1024.44
2016-10-31T00:11:31.757Z,1024.45
2016-10-31T00:12:31.742Z,1024.43
2016-10-31T00:13:31.722Z,1024.41
2016-10-31T00:14:31.705Z,1024.46
2016-10-31T00:15:31.688Z,1024.42
2016-10-31T00:16:31.670Z,1024.45
2016-10-31T00:17:31.651Z,1024.48
2016-10-31T00:18:31.636Z,1024.42
2016-10-31T00:19:31.619Z,1024.41
2016-10-31T00:20:31.603Z,1024.42
2016-10-31T00:21:31.584Z,1024.4
2016-10-31T00:22:31.567Z,1024.4
2016-10-31T00:23:31.552Z,1024.38
2016-10-31T00:24:31.533Z,1024.37
2016-10-31T00:25:31.518Z,1024.41
2016-10-31T00:26:31.504Z,1024.39
2016-10-31T00:27:31.482Z,1024.32
2016-10-31T00:28:31.466Z,1024.35
2016-10-31T00:29:31.448Z,1024.29
2016-10-31T00:30:31.431Z,1024.27
2016-10-31T00:31:31.414Z,1024.31
2016-10-31T00:32:31.395Z,1024.28
2016-10-31T00:33:31.379Z,1024.26
2016-10-31T00:34:31.363Z,1024.22
2016-10-31T00:35:31.348Z,1024.25
2016-10-31T00:36:31.327Z,1024.19
2016-10-31T00:37:31.313Z,1024.19
2016-10-31T00:38:31.295Z,1024.17
2016-10-31T00:39:31.280Z,1024.2
2016-10-31T00:40:31.265Z,1024.17
2016-10-31T00:41:31.243Z,1024.17
2016-10-31T00:42:31.227Z,1024.15
2016-10-31T00:43:31.209Z,1024.15
2016-10-31T00:44:31.192Z,1024.17
2016-10-31T00:45:31.175Z,1024.19
2016-10-31T00:46:31.159Z,1024.13
2016-10-31T00:47:31.147Z,1024.14
2016-10-31T00:48:31.124Z,1024.14
2016-10-31T00:49:31.108Z,1024.12
2016-10-31T00:50:31.090Z,1024.17
2016-10-31T00:51:31.073Z,1024.13
2016-10-31T00:52:31.056Z,1024.13
2016-10-31T00:53:31.039Z,1024.09
2016-10-31T00:54:31.023Z,1024.11
2016-10-31T00:55:31.004Z,1024.1
2016-10-31T00:56:30.987Z,1024.12
2016-10-31T00:57:30.971Z,1024.08
2016-10-31T00:58:30.952Z,1024.11
2016-10-31T00:59:30.938Z,1024.09
2016-10-31T01:00:30.920Z,1024.08
2016-10-31T01:01:30.903Z,1024.06
2016-10-31T01:02:30.886Z,1024.07
2016-10-31T01:03:30.867Z,1024.07
2016-10-31T01:04:30.851Z,1024.05
2016-10-31T01:05:30.834Z,1024.06
2016-10-31T01:06:30.816Z,1024.03
2016-10-31T01:07:30.801Z,1024.01
2016-10-31T01:08:30.784Z,1023.99
2016-10-31T01:09:30.765Z,1024.03
2016-10-31T01:10:30.752Z,1023.99
2016-10-31T01:11:30.733Z,1023.98
2016-10-31T01:12:30.713Z,1023.93
2016-10-31T01:13:30.698Z,1023.96
2016-10-31T01:14:30.681Z,1023.93
2016-10-31T01:15:30.663Z,1023.94
2016-10-31T01:16:30.646Z,1023.98
2016-10-31T01:17:30.635Z,1023.93
2016-10-31T01:18:30.612Z,1023.94
2016-10-31T01:19:30.595Z,1023.96
2016-10-31T01:20:30.578Z,1023.96
2016-10-31T01:21:30.560Z,1023.93
2016-10-31T01:22:30.546Z,1023.95
2016-10-31T01:23:30.526Z,1023.98
2016-10-31T01:24:30.508Z,1023.99
2016-10-31T01:25:30.493Z,1024.01
2016-10-31T01:26:30.476Z,1024.05
2016-10-31T01:27:30.459Z,1023.99
2016-10-31T01:28:30.442Z,1024.01
2016-10-31T01:29:30.425Z,1024
2016-10-31T01:30:30.407Z,1023.95
2016-10-31T01:31:30.394Z,1023.97
2016-10-31T01:32:30.372Z,1023.98
2016-10-31T01:33:30.360Z,1023.92
2016-10-31T01:34:30.338Z,1023.92
2016-10-31T01:35:30.323Z,1023.9
2016-10-31T01:36:30.306Z,1023.85
2016-10-31T01:37:30.288Z,1023.86
2016-10-31T01:38:30.273Z,1023.85
2016-10-31T01:39:30.253Z,1023.83
2016-10-31T01:40:30.236Z,1023.84
2016-10-31T01:41:30.218Z,1023.83
2016-10-31T01:42:30.201Z,1023.82
2016-10-31T01:43:30.187Z,1023.81
2016-10-31T01:44:30.167Z,1023.8
2016-10-31T01:45:30.153Z,1023.78
2016-10-31T01:46:30.132Z,1023.81
2016-10-31T01:47:30.114Z,1023.79
2016-10-31T01:48:30.099Z,1023.76
2016-10-31T01:49:30.080Z,1023.81
2016-10-31T01:50:30.064Z,1023.78
2016-10-31T01:51:30.047Z,1023.81
2016-10-31T01:52:30.034Z,1023.8
2016-10-31T01:53:30.012Z,1023.77
2016-10-31T01:54:29.995Z,1023.76
2016-10-31T01:55:29.977Z,1023.77
2016-10-31T01:56:29.960Z,1023.78
2016-10-31T01:57:29.947Z,1023.78
2016-10-31T01:58:29.926Z,1023.83
2016-10-31T01:59:30.010Z,1023.81
2016-10-31T02:00:29.891Z,1023.8
2016-10-31T02:01:29.878Z,1023.78
2016-10-31T02:02:29.858Z,1023.76
2016-10-31T02:03:29.841Z,1023.75
2016-10-31T02:04:29.822Z,1023.76
2016-10-31T02:05:29.806Z,1023.75
2016-10-31T02:06:29.789Z,1023.74
2016-10-31T02:07:29.771Z,1023.76
2016-10-31T02:08:29.754Z,1023.71
2016-10-31T02:09:29.737Z,1023.73
2016-10-31T02:10:29.721Z,1023.7
2016-10-31T02:11:29.702Z,1023.69
2016-10-31T02:12:29.689Z,1023.74
2016-10-31T02:13:29.670Z,1023.67
2016-10-31T02:14:29.652Z,1023.66
2016-10-31T02:15:29.642Z,1023.66
2016-10-31T02:16:29.617Z,1023.66
2016-10-31T02:17:29.628Z,1023.72
2016-10-31T02:18:29.582Z,1023.67
2016-10-31T02:19:29.568Z,1023.68
2016-10-31T02:20:29.550Z,1023.7
2016-10-31T02:21:29.533Z,1023.67
2016-10-31T02:22:29.519Z,1023.61
2016-10-31T02:23:29.496Z,1023.71
2016-10-31T02:24:29.481Z,1023.68
2016-10-31T02:25:29.464Z,1023.71
2016-10-31T02:26:29.449Z,1023.67
2016-10-31T02:27:29.430Z,1023.67
2016-10-31T02:28:29.415Z,1023.63
2016-10-31T02:29:29.396Z,1023.72
2016-10-31T02:30:29.380Z,1023.66
2016-10-31T02:31:29.365Z,1023.65
2016-10-31T02:32:29.348Z,1023.65
2016-10-31T02:33:29.329Z,1023.62
2016-10-31T02:34:29.312Z,1023.61
2016-10-31T02:35:29.298Z,1023.63
2016-10-31T02:36:29.277Z,1023.63
2016-10-31T02:37:29.260Z,1023.62
2016-10-31T02:38:29.249Z,1023.66
2016-10-31T02:39:29.228Z,1023.64
2016-10-31T02:40:29.209Z,1023.64
2016-10-31T02:41:29.194Z,1023.66
2016-10-31T02:42:29.181Z,1023.74
2016-10-31T02:43:29.160Z,1023.71
2016-10-31T02:44:29.143Z,1023.73
2016-10-31T02:45:29.125Z,1023.7
2016-10-31T02:46:29.108Z,1023.67
2016-10-31T02:47:29.091Z,1023.64
2016-10-31T02:48:29.074Z,1023.63
2016-10-31T02:49:29.059Z,1023.59
2016-10-31T02:50:29.041Z,1023.56
2016-10-31T02:51:29.023Z,1023.57
2016-10-31T02:52:29.006Z,1023.52
2016-10-31T02:53:28.991Z,1023.5
2016-10-31T02:54:28.976Z,1023.48
2016-10-31T02:55:28.957Z,1023.47
2016-10-31T02:56:28.939Z,1023.5
2016-10-31T02:57:28.926Z,1023.48
2016-10-31T02:58:28.905Z,1023.43
2016-10-31T02:59:28.888Z,1023.5
2016-10-31T03:00:28.871Z,1023.55
2016-10-31T03:01:28.858Z,1023.45
2016-10-31T03:02:28.837Z,1023.49
2016-10-31T03:03:28.819Z,1023.48
2016-10-31T03:04:28.804Z,1023.46
2016-10-31T03:05:28.787Z,1023.44
2016-10-31T03:06:28.768Z,1023.48
2016-10-31T03:07:28.753Z,1023.49
2016-10-31T03:08:28.735Z,1023.54
2016-10-31T03:09:28.719Z,1023.51
2016-10-31T03:10:28.701Z,1023.52
2016-10-31T03:11:28.688Z,1023.48
2016-10-31T03:12:28.667Z,1023.51
2016-10-31T03:13:28.650Z,1023.47
2016-10-31T03:14:28.633Z,1023.47
2016-10-31T03:15:28.618Z,1023.4
2016-10-31T03:16:28.600Z,1023.41
2016-10-31T03:17:28.581Z,1023.44
2016-10-31T03:18:28.568Z,1023.39
2016-10-31T03:19:28.549Z,1023.44
2016-10-31T03:20:28.535Z,1023.41
2016-10-31T03:21:28.518Z,1023.43
2016-10-31T03:22:28.498Z,1023.43
2016-10-31T03:23:28.481Z,1023.43
2016-10-31T03:24:28.464Z,1023.39
2016-10-31T03:25:28.446Z,1023.4
2016-10-31T03:26:28.429Z,1023.38
2016-10-31T03:27:28.414Z,1023.33
2016-10-31T03:28:28.395Z,1023.42
2016-10-31T03:29:28.380Z,1023.4
2016-10-31T03:30:28.362Z,1023.44
2016-10-31T03:31:28.347Z,1023.44
2016-10-31T03:32:28.328Z,1023.46
2016-10-31T03:33:28.311Z,1023.5
2016-10-31T03:34:28.296Z,1023.49
2016-10-31T03:35:28.277Z,1023.51
2016-10-31T03:36:28.259Z,1023.58
2016-10-31T03:37:28.243Z,1023.62
2016-10-31T03:38:28.225Z,1023.54
2016-10-31T03:39:28.212Z,1023.59
2016-10-31T03:40:28.191Z,1023.59
2016-10-31T03:41:28.174Z,1023.58
2016-10-31T03:42:28.157Z,1023.55
2016-10-31T03:43:28.142Z,1023.61
2016-10-31T03:44:28.125Z,1023.56
2016-10-31T03:45:28.110Z,1023.65
2016-10-31T03:46:28.090Z,1023.6
2016-10-31T03:47:28.074Z,1023.58
2016-10-31T03:48:28.059Z,1023.64
2016-10-31T03:49:28.039Z,1023.65
2016-10-31T03:50:28.023Z,1023.66
2016-10-31T03:51:28.008Z,1023.59
2016-10-31T03:52:27.990Z,1023.66
2016-10-31T03:53:27.975Z,1023.65
2016-10-31T03:54:27.956Z,1023.59
2016-10-31T03:55:27.936Z,1023.61
2016-10-31T03:56:27.921Z,1023.62
2016-10-31T03:57:27.905Z,1023.6
2016-10-31T03:58:27.887Z,1023.58
2016-10-31T03:59:27.872Z,1023.64
2016-10-31T04:00:27.852Z,1023.59
2016-10-31T04:01:27.837Z,1023.54
2016-10-31T04:02:27.820Z,1023.57
2016-10-31T04:03:27.803Z,1023.53
2016-10-31T04:04:27.788Z,1023.56
2016-10-31T04:05:27.770Z,1023.56
2016-10-31T04:06:27.752Z,1023.56
2016-10-31T04:07:27.737Z,1023.5
2016-10-31T04:08:27.717Z,1023.51
2016-10-31T04:09:27.700Z,1023.52
2016-10-31T04:10:27.685Z,1023.51
2016-10-31T04:11:27.666Z,1023.54
2016-10-31T04:12:27.649Z,1023.46
2016-10-31T04:13:27.634Z,1023.47
2016-10-31T04:14:27.620Z,1023.42
2016-10-31T04:15:27.599Z,1023.43
2016-10-31T04:16:27.586Z,1023.46
2016-10-31T04:17:27.565Z,1023.4
2016-10-31T04:18:27.550Z,1023.41
2016-10-31T04:19:27.531Z,1023.41
2016-10-31T04:20:27.514Z,1023.43
2016-10-31T04:21:27.499Z,1023.47
2016-10-31T04:22:27.479Z,1023.5
2016-10-31T04:23:27.464Z,1023.47
2016-10-31T04:24:27.447Z,1023.47
2016-10-31T04:25:27.434Z,1023.46
2016-10-31T04:26:27.414Z,1023.49
2016-10-31T04:27:27.395Z,1023.44
2016-10-31T04:28:27.378Z,1023.43
2016-10-31T04:29:27.361Z,1023.43
2016-10-31T04:30:27.344Z,1023.49
2016-10-31T04:31:27.327Z,1023.46
2016-10-31T04:32:27.311Z,1023.48
2016-10-31T04:33:27.295Z,1023.45
2016-10-31T04:34:27.275Z,1023.51
2016-10-31T04:35:27.258Z,1023.5
2016-10-31T04:36:27.243Z,1023.45
2016-10-31T04:37:27.225Z,1023.48
2016-10-31T04:38:27.208Z,1023.43
2016-10-31T04:39:27.195Z,1023.39
2016-10-31T04:40:27.174Z,1023.36
2016-10-31T04:41:27.157Z,1023.39
2016-10-31T04:42:27.139Z,1023.39
2016-10-31T04:43:27.122Z,1023.41
2016-10-31T04:44:27.109Z,1023.39
2016-10-31T04:45:27.088Z,1023.39
2016-10-31T04:46:27.073Z,1023.4
2016-10-31T04:47:27.055Z,1023.33
2016-10-31T04:48:27.040Z,1023.39
2016-10-31T04:49:27.020Z,1023.37
2016-10-31T04:50:27.006Z,1023.32
2016-10-31T04:51:26.987Z,1023.32
2016-10-31T04:52:26.969Z,1023.32
2016-10-31T04:53:26.956Z,1023.37
2016-10-31T04:54:26.935Z,1023.36
2016-10-31T04:55:26.919Z,1023.29
2016-10-31T04:56:26.900Z,1023.3
2016-10-31T04:57:26.888Z,1023.29
2016-10-31T04:58:26.868Z,1023.34
2016-10-31T04:59:26.849Z,1023.31
2016-10-31T05:00:26.834Z,1023.29
2016-10-31T05:01:26.816Z,1023.28
2016-10-31T05:02:26.800Z,1023.37
2016-10-31T05:03:26.782Z,1023.28
2016-10-31T05:04:26.765Z,1023.29
2016-10-31T05:05:26.748Z,1023.28
2016-10-31T05:06:26.731Z,1023.29
2016-10-31T05:07:26.718Z,1023.24
2016-10-31T05:08:26.696Z,1023.28
2016-10-31T05:09:26.681Z,1023.26
2016-10-31T05:10:26.662Z,1023.22
2016-10-31T05:11:26.652Z,1023.2
2016-10-31T05:12:26.629Z,1023.22
2016-10-31T05:13:26.614Z,1023.19
2016-10-31T05:14:26.599Z,1023.19
2016-10-31T05:15:26.578Z,1023.16
2016-10-31T05:16:26.561Z,1023.12
2016-10-31T05:17:26.543Z,1023.1
2016-10-31T05:18:26.527Z,1023.09
2016-10-31T05:19:26.509Z,1023.09
2016-10-31T05:20:26.492Z,1023.07
2016-10-31T05:21:26.478Z,1023.09
2016-10-31T05:22:26.458Z,1023.09
2016-10-31T05:23:26.442Z,1023.09
2016-10-31T05:24:26.427Z,1023.07
2016-10-31T05:25:26.411Z,1023.07
2016-10-31T05:26:26.393Z,1023.05
2016-10-31T05:27:26.374Z,1023.11
2016-10-31T05:28:26.357Z,1023.04
2016-10-31T05:29:26.339Z,1023.03
2016-10-31T05:30:26.332Z,1023.03
2016-10-31T05:31:26.307Z,1022.98
2016-10-31T05:32:26.290Z,1022.95
2016-10-31T05:33:26.272Z,1022.93
2016-10-31T05:34:26.260Z,1022.9
2016-10-31T05:35:26.239Z,1022.88
2016-10-31T05:36:26.227Z,1022.88
2016-10-31T05:37:26.205Z,1022.91
2016-10-31T05:38:26.186Z,1022.88
2016-10-31T05:39:26.171Z,1022.88
2016-10-31T05:40:26.152Z,1022.9
2016-10-31T05:41:26.137Z,1022.97
2016-10-31T05:42:26.121Z,1022.96
2016-10-31T05:43:26.099Z,1022.94
2016-10-31T05:44:26.089Z,1022.97
2016-10-31T05:45:26.072Z,1022.93
2016-10-31T05:46:26.055Z,1022.95
2016-10-31T05:47:26.033Z,1022.91
2016-10-31T05:48:26.016Z,1022.99
2016-10-31T05:49:26.005Z,1022.96
2016-10-31T05:50:25.981Z,1022.97
2016-10-31T05:51:25.966Z,1022.97
2016-10-31T05:52:25.948Z,1022.98
2016-10-31T05:53:25.936Z,1022.97
2016-10-31T05:54:25.919Z,1022.97
2016-10-31T05:55:25.898Z,1022.98
2016-10-31T05:56:25.880Z,1023.01
2016-10-31T05:57:25.864Z,1023.04
2016-10-31T05:58:25.849Z,1022.97
2016-10-31T05:59:25.829Z,1022.99
2016-10-31T06:00:25.811Z,1023.01
2016-10-31T06:01:25.794Z,1022.99
2016-10-31T06:02:25.777Z,1022.98
2016-10-31T06:03:25.764Z,1022.97
2016-10-31T06:04:25.743Z,1022.98
2016-10-31T06:05:25.727Z,1023.04
2016-10-31T06:06:25.708Z,1023.03
2016-10-31T06:07:25.693Z,1023.03
2016-10-31T06:08:25.677Z,1023.01
2016-10-31T06:09:25.658Z,1023.02
2016-10-31T06:10:25.641Z,1023.07
2016-10-31T06:11:25.624Z,1023.03
2016-10-31T06:12:25.607Z,1023.06
2016-10-31T06:13:25.590Z,1023.11
2016-10-31T06:14:25.572Z,1023.15
2016-10-31T06:15:25.555Z,1023.17
2016-10-31T06:16:25.538Z,1023.23
2016-10-31T06:17:25.522Z,1023.19
2016-10-31T06:18:25.504Z,1023.2
2016-10-31T06:19:25.486Z,1023.25
2016-10-31T06:20:25.471Z,1023.25
2016-10-31T06:21:25.454Z,1023.26
2016-10-31T06:22:25.435Z,1023.24
2016-10-31T06:23:25.420Z,1023.28
2016-10-31T06:24:25.402Z,1023.29
2016-10-31T06:25:25.385Z,1023.29
2016-10-31T06:26:25.371Z,1023.35
2016-10-31T06:27:25.350Z,1023.4
2016-10-31T06:28:25.335Z,1023.35
2016-10-31T06:29:25.316Z,1023.41
2016-10-31T06:30:25.297Z,1023.41
2016-10-31T06:31:25.289Z,1023.37
2016-10-31T06:32:25.264Z,1023.42
2016-10-31T06:33:25.249Z,1023.41
2016-10-31T06:34:25.229Z,1023.45
2016-10-31T06:35:25.214Z,1023.42
2016-10-31T06:36:25.196Z,1023.42
2016-10-31T06:37:25.180Z,1023.48
2016-10-31T06:38:25.162Z,1023.53
2016-10-31T06:39:25.146Z,1023.49
2016-10-31T06:40:25.128Z,1023.55
2016-10-31T06:41:25.110Z,1023.55
2016-10-31T06:42:25.093Z,1023.57
2016-10-31T06:43:25.076Z,1023.53
2016-10-31T06:44:25.062Z,1023.55
2016-10-31T06:45:25.041Z,1023.54
2016-10-31T06:46:25.024Z,1023.5
2016-10-31T06:47:25.009Z,1023.5
2016-10-31T06:48:24.995Z,1023.5
2016-10-31T06:49:24.976Z,1023.54
2016-10-31T06:50:24.956Z,1023.48
2016-10-31T06:51:24.942Z,1023.52
2016-10-31T06:52:24.921Z,1023.5
2016-10-31T06:53:24.905Z,1023.46
2016-10-31T06:54:24.891Z,1023.44
2016-10-31T06:55:24.871Z,1023.42
2016-10-31T06:56:24.855Z,1023.42
2016-10-31T06:57:24.836Z,1023.41
2016-10-31T06:58:24.823Z,1023.39
2016-10-31T06:59:24.806Z,1023.35
2016-10-31T07:00:24.785Z,1023.42
2016-10-31T07:01:24.769Z,1023.41
2016-10-31T07:02:24.752Z,1023.47
2016-10-31T07:03:24.735Z,1023.51
2016-10-31T07:04:24.718Z,1023.53
2016-10-31T07:05:24.700Z,1023.56
2016-10-31T07:06:24.684Z,1023.58
2016-10-31T07:07:24.666Z,1023.58
2016-10-31T07:08:24.649Z,1023.57
2016-10-31T07:09:24.630Z,1023.57
2016-10-31T07:10:24.614Z,1023.58
2016-10-31T07:11:24.597Z,1023.58
2016-10-31T07:12:24.608Z,1023.59
2016-10-31T07:13:24.567Z,1023.58
2016-10-31T07:14:24.545Z,1023.62
2016-10-31T07:15:24.530Z,1023.63
2016-10-31T07:16:24.512Z,1023.66
2016-10-31T07:17:24.499Z,1023.71
2016-10-31T07:18:24.478Z,1023.65
2016-10-31T07:19:24.461Z,1023.74
2016-10-31T07:20:24.444Z,1023.75
2016-10-31T07:21:24.429Z,1023.75
2016-10-31T07:22:24.411Z,1023.76
2016-10-31T07:23:24.392Z,1023.71
2016-10-31T07:24:24.375Z,1023.71
2016-10-31T07:25:24.361Z,1023.69
2016-10-31T07:26:24.341Z,1023.69
2016-10-31T07:27:24.326Z,1023.73
2016-10-31T07:28:24.308Z,1023.73
2016-10-31T07:29:24.289Z,1023.72
2016-10-31T07:30:24.271Z,1023.75
2016-10-31T07:31:24.256Z,1023.65
2016-10-31T07:32:24.237Z,1023.68
2016-10-31T07:33:24.222Z,1023.66
2016-10-31T07:34:24.204Z,1023.67
2016-10-31T07:35:24.187Z,1023.63
2016-10-31T07:36:24.172Z,1023.63
2016-10-31T07:37:24.151Z,1023.64
2016-10-31T07:38:24.136Z,1023.59
2016-10-31T07:39:24.118Z,1023.55
2016-10-31T07:40:24.106Z,1023.57
2016-10-31T07:41:24.089Z,1023.53
2016-10-31T07:42:24.067Z,1023.58
2016-10-31T07:43:24.050Z,1023.54
2016-10-31T07:44:24.032Z,1023.53
2016-10-31T07:45:24.015Z,1023.57
2016-10-31T07:46:23.999Z,1023.6
2016-10-31T07:47:23.981Z,1023.61
2016-10-31T07:48:23.965Z,1023.64
2016-10-31T07:49:23.949Z,1023.62
2016-10-31T07:50:23.933Z,1023.59
2016-10-31T07:51:23.914Z,1023.65
2016-10-31T07:52:23.897Z,1023.65
2016-10-31T07:53:23.879Z,1023.67
2016-10-31T07:54:23.862Z,1023.65
2016-10-31T07:55:23.846Z,1023.64
2016-10-31T07:56:23.828Z,1023.67
2016-10-31T07:57:23.811Z,1023.64
2016-10-31T07:58:23.793Z,1023.6
2016-10-31T07:59:23.778Z,1023.62
2016-10-31T08:00:23.762Z,1023.63
2016-10-31T08:01:23.744Z,1023.64
2016-10-31T08:02:23.724Z,1023.63
2016-10-31T08:03:23.709Z,1023.62
2016-10-31T08:04:23.694Z,1023.65
2016-10-31T08:05:23.675Z,1023.65
2016-10-31T08:06:23.658Z,1023.62
2016-10-31T08:07:23.641Z,1023.62
2016-10-31T08:08:23.625Z,1023.66
2016-10-31T08:09:23.610Z,1023.63
2016-10-31T08:10:23.591Z,1023.59
2016-10-31T08:11:23.574Z,1023.56
2016-10-31T08:12:23.554Z,1023.64
2016-10-31T08:13:23.541Z,1023.61
2016-10-31T08:14:23.521Z,1023.58
2016-10-31T08:15:23.504Z,1023.61
2016-10-31T08:16:23.485Z,1023.6
2016-10-31T08:17:23.471Z,1023.58
2016-10-31T08:18:23.456Z,1023.65
2016-10-31T08:19:23.436Z,1023.59
2016-10-31T08:20:23.417Z,1023.58
2016-10-31T08:21:23.403Z,1023.55
2016-10-31T08:22:23.392Z,1023.49
2016-10-31T08:23:23.371Z,1023.54
2016-10-31T08:24:23.350Z,1023.49
2016-10-31T08:25:23.332Z,1023.46
2016-10-31T08:26:23.316Z,1023.45
2016-10-31T08:27:23.298Z,1023.44
2016-10-31T08:28:23.312Z,1023.44
2016-10-31T08:29:23.266Z,1023.44
2016-10-31T08:30:23.249Z,1023.45
2016-10-31T08:31:23.229Z,1023.45
2016-10-31T08:32:23.217Z,1023.42
2016-10-31T08:33:23.195Z,1023.38
2016-10-31T08:34:23.179Z,1023.4
2016-10-31T08:35:23.163Z,1023.39
2016-10-31T08:36:23.145Z,1023.4
2016-10-31T08:37:23.130Z,1023.36
2016-10-31T08:38:23.115Z,1023.37
2016-10-31T08:39:23.096Z,1023.42
2016-10-31T08:40:23.078Z,1023.38
2016-10-31T08:41:23.063Z,1023.45
2016-10-31T08:42:23.046Z,1023.45
2016-10-31T08:43:23.027Z,1023.5
2016-10-31T08:44:23.009Z,1023.51
2016-10-31T08:45:22.992Z,1023.44
2016-10-31T08:46:22.983Z,1023.5
2016-10-31T08:47:22.957Z,1023.52
2016-10-31T08:48:23.143Z,1023.48
2016-10-31T08:49:22.923Z,1023.48
2016-10-31T08:50:22.910Z,1023.5
2016-10-31T08:51:22.893Z,1023.48
2016-10-31T08:52:22.874Z,1023.43
2016-10-31T08:53:22.855Z,1023.49
2016-10-31T08:54:22.849Z,1023.47
2016-10-31T08:55:22.822Z,1023.47
2016-10-31T08:56:22.803Z,1023.47
2016-10-31T08:57:22.788Z,1023.48
2016-10-31T08:58:22.770Z,1023.46
2016-10-31T08:59:22.757Z,1023.52
2016-10-31T09:00:22.736Z,1023.42
2016-10-31T09:01:22.719Z,1023.4
2016-10-31T09:02:22.708Z,1023.41
2016-10-31T09:03:22.684Z,1023.36
2016-10-31T09:04:22.667Z,1023.33
2016-10-31T09:05:22.652Z,1023.38
2016-10-31T09:06:22.633Z,1023.32
2016-10-31T09:07:22.615Z,1023.32
2016-10-31T09:08:22.598Z,1023.34
2016-10-31T09:09:22.584Z,1023.34
2016-10-31T09:10:22.566Z,1023.3
2016-10-31T09:11:22.549Z,1023.3
2016-10-31T09:12:22.533Z,1023.32
2016-10-31T09:13:22.514Z,1023.25
2016-10-31T09:14:22.499Z,1023.22
2016-10-31T09:15:22.474Z,1023.22
2016-10-31T09:16:22.463Z,1023.23
2016-10-31T09:17:22.445Z,1023.17
2016-10-31T09:18:22.428Z,1023.16
2016-10-31T09:19:22.411Z,1023.14
2016-10-31T09:20:22.401Z,1023.17
2016-10-31T09:21:22.378Z,1023.13
2016-10-31T09:22:22.359Z,1023.14
2016-10-31T09:23:22.346Z,1023.16
2016-10-31T09:24:22.327Z,1023.19
2016-10-31T09:25:22.310Z,1023.16
2016-10-31T09:26:22.291Z,1023.22
2016-10-31T09:27:22.275Z,1023.23
2016-10-31T09:28:22.257Z,1023.24
2016-10-31T09:29:22.239Z,1023.27
2016-10-31T09:30:22.223Z,1023.25
2016-10-31T09:31:22.206Z,1023.25
2016-10-31T09:32:22.190Z,1023.21
2016-10-31T09:33:22.173Z,1023.22
2016-10-31T09:34:22.154Z,1023.22
2016-10-31T09:35:22.140Z,1023.2
2016-10-31T09:36:22.121Z,1023.25
2016-10-31T09:37:22.104Z,1023.25
2016-10-31T09:38:22.086Z,1023.23
2016-10-31T09:39:22.069Z,1023.22
2016-10-31T09:40:22.052Z,1023.24
2016-10-31T09:41:22.034Z,1023.2
2016-10-31T09:42:22.017Z,1023.16
2016-10-31T09:43:21.998Z,1023.2
2016-10-31T09:44:21.982Z,1023.19
2016-10-31T09:45:21.967Z,1023.22
2016-10-31T09:46:21.950Z,1023.16
2016-10-31T09:47:21.934Z,1023.21
2016-10-31T09:48:21.915Z,1023.23
2016-10-31T09:49:21.898Z,1023.21
2016-10-31T09:50:21.880Z,1023.23
2016-10-31T09:51:21.871Z,1023.22
2016-10-31T09:52:21.847Z,1023.26
2016-10-31T09:53:21.829Z,1023.27
2016-10-31T09:54:21.813Z,1023.24
2016-10-31T09:55:21.792Z,1023.28
2016-10-31T09:56:21.777Z,1023.27
2016-10-31T09:57:21.761Z,1023.23
2016-10-31T09:58:21.748Z,1023.29
2016-10-31T09:59:21.725Z,1023.2
2016-10-31T10:00:21.710Z,1023.26
2016-10-31T10:01:21.695Z,1023.22
2016-10-31T10:02:21.892Z,1023.2
2016-10-31T10:03:21.658Z,1023.23
2016-10-31T10:04:21.637Z,1023.23
2016-10-31T10:05:21.624Z,1023.22
2016-10-31T10:06:21.607Z,1023.25
2016-10-31T10:07:21.589Z,1023.23
2016-10-31T10:08:21.572Z,1023.27
2016-10-31T10:09:21.555Z,1023.23
2016-10-31T10:10:21.538Z,1023.22
2016-10-31T10:11:21.521Z,1023.26
2016-10-31T10:12:21.507Z,1023.22
2016-10-31T10:13:21.486Z,1023.21
2016-10-31T10:14:21.471Z,1023.18
2016-10-31T10:15:21.454Z,1023.19
2016-10-31T10:16:21.437Z,1023.18
2016-10-31T10:17:21.417Z,1023.19
2016-10-31T10:18:21.401Z,1023.2
2016-10-31T10:19:21.385Z,1023.2
2016-10-31T10:20:21.368Z,1023.21
2016-10-31T10:21:21.351Z,1023.15
2016-10-31T10:22:21.332Z,1023.16
2016-10-31T10:23:21.316Z,1023.14
2016-10-31T10:24:21.300Z,1023.15
2016-10-31T10:25:21.282Z,1023.14
2016-10-31T10:26:21.265Z,1023.15
2016-10-31T10:27:21.248Z,1023.16
2016-10-31T10:28:21.233Z,1023.14
2016-10-31T10:29:21.214Z,1023.15
2016-10-31T10:30:21.198Z,1023.15
2016-10-31T10:31:21.181Z,1023.12
2016-10-31T10:32:21.164Z,1023.13
2016-10-31T10:33:21.148Z,1023.13
2016-10-31T10:34:21.132Z,1023.1
2016-10-31T10:35:21.113Z,1023.12
2016-10-31T10:36:21.098Z,1023.16
2016-10-31T10:37:21.080Z,1023.14
2016-10-31T10:38:21.065Z,1023.12
2016-10-31T10:39:21.046Z,1023.12
2016-10-31T10:40:21.030Z,1023.17
2016-10-31T10:41:21.015Z,1023.12
2016-10-31T10:42:20.996Z,1023.12
2016-10-31T10:43:20.980Z,1023.1
2016-10-31T10:44:20.962Z,1023.12
2016-10-31T10:45:20.947Z,1023.12
2016-10-31T10:46:20.932Z,1023.09
2016-10-31T10:47:20.913Z,1023.06
2016-10-31T10:48:20.898Z,1023.07
2016-10-31T10:49:20.882Z,1023.09
2016-10-31T10:50:20.863Z,1023.11
2016-10-31T10:51:20.846Z,1023.08
2016-10-31T10:52:20.833Z,1023.08
2016-10-31T10:53:20.821Z,1023.05
2016-10-31T10:54:20.796Z,1023.1
2016-10-31T10:55:20.779Z,1023.07
2016-10-31T10:56:20.764Z,1023.07
2016-10-31T10:57:20.747Z,1023.05
2016-10-31T10:58:20.730Z,1023.09
2016-10-31T10:59:20.715Z,1023.11
2016-10-31T11:00:20.698Z,1023.1
2016-10-31T11:01:20.681Z,1023.08
2016-10-31T11:02:20.665Z,1023.09
2016-10-31T11:03:20.648Z,1023.13
2016-10-31T11:04:20.631Z,1023.1
2016-10-31T11:05:20.614Z,1023.05
2016-10-31T11:06:20.598Z,1023.07
2016-10-31T11:07:20.581Z,1023.05
2016-10-31T11:08:20.566Z,1023.06
2016-10-31T11:09:20.548Z,1023.06
2016-10-31T11:10:20.539Z,1023.05
2016-10-31T11:11:20.516Z,1023
2016-10-31T11:12:20.499Z,1023.03
2016-10-31T11:13:20.482Z,1023.02
2016-10-31T11:14:20.469Z,1022.96
2016-10-31T11:15:20.450Z,1022.95
2016-10-31T11:16:20.433Z,1022.97
2016-10-31T11:17:20.417Z,1022.93
2016-10-31T11:18:20.400Z,1022.91
2016-10-31T11:19:20.384Z,1022.87
2016-10-31T11:20:20.368Z,1022.83
2016-10-31T11:21:20.355Z,1022.84
2016-10-31T11:22:20.336Z,1022.75
2016-10-31T11:23:20.318Z,1022.8
2016-10-31T11:24:20.304Z,1022.78
2016-10-31T11:25:20.287Z,1022.79
2016-10-31T11:26:20.267Z,1022.76
2016-10-31T11:27:20.253Z,1022.79
2016-10-31T11:28:20.236Z,1022.76
2016-10-31T11:29:20.221Z,1022.79
2016-10-31T11:30:20.204Z,1022.74
2016-10-31T11:31:20.189Z,1022.73
2016-10-31T11:32:20.174Z,1022.72
2016-10-31T11:33:20.157Z,1022.73
2016-10-31T11:34:20.139Z,1022.71
2016-10-31T11:35:20.125Z,1022.71
2016-10-31T11:36:20.107Z,1022.7
2016-10-31T11:37:20.090Z,1022.73
2016-10-31T11:38:20.075Z,1022.71
2016-10-31T11:39:20.060Z,1022.71
2016-10-31T11:40:20.045Z,1022.69
2016-10-31T11:41:20.027Z,1022.68
2016-10-31T11:42:20.010Z,1022.69
2016-10-31T11:43:19.995Z,1022.7
2016-10-31T11:44:19.979Z,1022.68
2016-10-31T11:45:19.962Z,1022.65
2016-10-31T11:46:19.949Z,1022.65
2016-10-31T11:47:19.932Z,1022.66
2016-10-31T11:48:19.912Z,1022.67
2016-10-31T11:49:19.897Z,1022.7
2016-10-31T11:50:19.882Z,1022.68
2016-10-31T11:51:19.865Z,1022.66
2016-10-31T11:52:19.850Z,1022.72
2016-10-31T11:53:19.833Z,1022.69
2016-10-31T11:54:19.817Z,1022.69
2016-10-31T11:55:19.800Z,1022.63
2016-10-31T11:56:19.783Z,1022.67
2016-10-31T11:57:19.768Z,1022.65
2016-10-31T11:58:19.754Z,1022.66
2016-10-31T11:59:19.737Z,1022.64
2016-10-31T12:00:19.720Z,1022.66
2016-10-31T12:01:19.703Z,1022.63
2016-10-31T12:02:19.688Z,1022.62
2016-10-31T12:03:19.667Z,1022.65
2016-10-31T12:04:19.655Z,1022.66
2016-10-31T12:05:19.640Z,1022.66
2016-10-31T12:06:19.623Z,1022.66
2016-10-31T12:07:19.606Z,1022.64